createdAt,value
2023-04-20T00:02:22.014Z,67.73
2023-04-20T00:04:50.938Z,67.72
2023-04-20T00:07:19.819Z,67.92
2023-04-20T00:09:48.098Z,67.88
2023-04-20T00:12:16.979Z,68.01
2023-04-20T00:14:45.422Z,68.01
2023-04-20T00:17:13.634Z,68.04
2023-04-20T00:19:42.113Z,68.11
2023-04-20T00:22:10.597Z,68.09
2023-04-20T00:24:38.793Z,67.99
2023-04-20T00:27:07.145Z,67.98
2023-04-20T00:29:36.152Z,67.95
2023-04-20T00:32:06.458Z,67.87
2023-04-20T00:34:35.248Z,67.81
2023-04-20T00:37:03.932Z,67.78
2023-04-20T00:39:32.516Z,67.75
2023-04-20T00:42:06.947Z,67.68
2023-04-20T00:44:35.737Z,67.56
2023-04-20T00:47:04.439Z,67.69
2023-04-20T00:49:34.633Z,67.77
2023-04-20T00:52:03.106Z,67.73
2023-04-20T00:54:32.614Z,67.62
2023-04-20T00:57:01.096Z,67.52
2023-04-20T00:59:29.672Z,67.65
2023-04-20T01:01:58.660Z,67.77
2023-04-20T01:04:27.347Z,67.87
2023-04-20T01:06:55.832Z,67.92
2023-04-20T01:09:24.127Z,67.95
2023-04-20T01:11:52.999Z,67.83
2023-04-20T01:14:21.382Z,67.74
2023-04-20T01:16:49.963Z,67.79
2023-04-20T01:19:19.033Z,67.77
2023-04-20T01:21:48.252Z,67.92
2023-04-20T01:24:17.758Z,67.98
2023-04-20T01:26:46.140Z,67.93
2023-04-20T01:29:14.874Z,67.99
2023-04-20T01:31:44.398Z,68.17
2023-04-20T01:34:12.713Z,68.27
2023-04-20T01:36:41.493Z,68.38
2023-04-20T01:39:10.242Z,68.38
2023-04-20T01:41:39.682Z,68.38
2023-04-20T01:44:08.292Z,68.40
2023-04-20T01:46:40.063Z,68.20
2023-04-20T01:49:09.222Z,68.19
2023-04-20T01:51:38.111Z,68.19
2023-04-20T01:54:06.490Z,68.29
2023-04-20T01:56:36.320Z,68.25
2023-04-20T01:59:04.986Z,68.36
2023-04-20T02:01:35.415Z,68.28
2023-04-20T02:04:03.922Z,68.22
2023-04-20T02:06:33.532Z,68.19
2023-04-20T02:09:01.883Z,68.16
2023-04-20T02:11:30.795Z,68.05
2023-04-20T02:13:59.060Z,68.05
2023-04-20T02:16:29.813Z,68.06
2023-04-20T02:18:58.319Z,68.05
2023-04-20T02:21:26.649Z,67.96
2023-04-20T02:23:54.936Z,68.09
2023-04-20T02:26:24.005Z,68.16
2023-04-20T02:28:52.485Z,68.07
2023-04-20T02:31:20.793Z,68.06
2023-04-20T02:33:50.264Z,67.99
2023-04-20T02:36:18.643Z,67.69
2023-04-20T02:38:47.122Z,67.75
2023-04-20T02:41:15.511Z,67.82
2023-04-20T02:43:44.312Z,67.84
2023-04-20T02:46:13.018Z,67.79
2023-04-20T02:48:42.081Z,67.84
2023-04-20T02:51:10.861Z,67.84
2023-04-20T02:53:43.956Z,67.69
2023-04-20T02:56:25.228Z,67.76
2023-04-20T02:58:56.166Z,67.76
2023-04-20T03:01:44.527Z,67.93
2023-04-20T03:04:16.620Z,67.94
2023-04-20T03:07:18.644Z,67.96
2023-04-20T03:09:47.873Z,67.85
2023-04-20T03:12:42.969Z,67.97
2023-04-20T03:15:28.736Z,68.10
2023-04-20T03:18:04.931Z,68.08
2023-04-20T03:20:33.785Z,68.19
2023-04-20T03:23:02.375Z,68.33
2023-04-20T03:25:32.493Z,68.43
2023-04-20T03:28:03.480Z,68.45
2023-04-20T03:30:33.036Z,68.53
2023-04-20T03:33:06.165Z,68.74
2023-04-20T03:35:35.316Z,69.32
2023-04-20T03:38:03.899Z,69.58
2023-04-20T03:40:32.795Z,69.54
2023-04-20T03:43:01.165Z,69.61
2023-04-20T03:45:29.925Z,69.72
2023-04-20T03:47:58.432Z,69.41
2023-04-20T03:50:27.321Z,69.36
2023-04-20T03:52:56.315Z,69.34
2023-04-20T03:55:24.693Z,69.21
2023-04-20T03:57:59.320Z,69.12
2023-04-20T04:00:28.113Z,69.87
2023-04-20T04:02:59.934Z,70.21
2023-04-20T04:05:29.538Z,70.11
2023-04-20T04:07:58.361Z,70.08
2023-04-20T04:10:27.169Z,70.16
2023-04-20T04:12:55.740Z,70.04
2023-04-20T04:15:24.433Z,70.19
2023-04-20T04:17:59.453Z,70.26
2023-04-20T04:20:29.265Z,70.18
2023-04-20T04:22:58.462Z,70.21
2023-04-20T04:25:34.318Z,70.32
2023-04-20T04:28:02.697Z,70.30
2023-04-20T04:30:31.683Z,70.46
2023-04-20T04:33:00.408Z,70.47
2023-04-20T04:35:30.728Z,70.65
2023-04-20T04:37:59.483Z,70.73
2023-04-20T04:40:28.170Z,70.65
2023-04-20T04:42:57.189Z,70.43
2023-04-20T04:45:25.537Z,70.28
2023-04-20T04:47:54.466Z,70.40
2023-04-20T04:50:23.044Z,70.24
2023-04-20T04:52:53.337Z,70.10
2023-04-20T04:55:21.822Z,69.96
2023-04-20T04:57:50.000Z,69.94
2023-04-20T05:00:19.289Z,69.92
2023-04-20T05:02:47.781Z,69.94
2023-04-20T05:05:16.977Z,69.83
2023-04-20T05:07:46.068Z,69.84
2023-04-20T05:10:15.213Z,69.79
2023-04-20T05:12:44.871Z,69.77
2023-04-20T05:15:13.147Z,69.71
2023-04-20T05:17:41.713Z,69.65
2023-04-20T05:20:11.957Z,69.53
2023-04-20T05:22:40.869Z,69.49
2023-04-20T05:25:11.626Z,69.51
2023-04-20T05:27:41.998Z,69.33
2023-04-20T05:30:20.245Z,69.21
2023-04-20T05:32:52.255Z,69.05
2023-04-20T05:35:21.747Z,68.74
2023-04-20T05:37:50.285Z,68.56
2023-04-20T05:40:18.845Z,68.58
2023-04-20T05:42:47.482Z,68.62
2023-04-20T05:45:16.311Z,68.60
2023-04-20T05:47:53.426Z,68.56
2023-04-20T05:50:22.996Z,68.65
2023-04-20T05:52:52.131Z,68.61
2023-04-20T05:55:22.889Z,68.57
2023-04-20T05:57:52.455Z,68.50
2023-04-20T06:00:22.014Z,68.46
2023-04-20T06:02:51.560Z,68.41
2023-04-20T06:05:21.324Z,68.46
2023-04-20T06:07:49.838Z,68.40
2023-04-20T06:10:18.639Z,68.32
2023-04-20T06:12:47.935Z,68.31
2023-04-20T06:15:16.416Z,68.08
2023-04-20T06:17:45.012Z,67.85
2023-04-20T06:20:13.604Z,67.85
2023-04-20T06:22:45.643Z,67.99
2023-04-20T06:25:15.949Z,68.00
2023-04-20T06:27:44.568Z,67.99
2023-04-20T06:30:13.456Z,68.15
2023-04-20T06:32:42.159Z,68.14
2023-04-20T06:35:10.804Z,68.07
2023-04-20T06:37:40.615Z,68.09
2023-04-20T06:40:09.091Z,68.31
2023-04-20T06:42:37.910Z,68.32
2023-04-20T06:45:07.685Z,68.37
2023-04-20T06:47:36.404Z,68.42
2023-04-20T06:50:10.004Z,68.38
2023-04-20T06:52:39.590Z,68.13
2023-04-20T06:55:08.987Z,68.05
2023-04-20T06:57:40.233Z,67.98
2023-04-20T07:00:10.096Z,67.99
2023-04-20T07:02:48.362Z,68.03
2023-04-20T07:05:17.466Z,68.04
2023-04-20T07:07:46.454Z,68.05
2023-04-20T07:10:15.240Z,68.06
2023-04-20T07:12:44.318Z,68.29
2023-04-20T07:15:13.253Z,68.32
2023-04-20T07:17:42.404Z,68.39
2023-04-20T07:20:11.602Z,68.21
2023-04-20T07:22:40.253Z,68.32
2023-04-20T07:25:09.801Z,68.36
2023-04-20T07:27:39.559Z,68.48
2023-04-20T07:30:09.099Z,68.34
2023-04-20T07:32:38.214Z,68.33
2023-04-20T07:35:07.111Z,68.38
2023-04-20T07:37:35.988Z,68.29
2023-04-20T07:40:06.963Z,68.18
2023-04-20T07:42:37.550Z,67.86
2023-04-20T07:45:06.867Z,67.85
2023-04-20T07:47:35.568Z,67.80
2023-04-20T07:50:05.369Z,67.67
2023-04-20T07:52:33.950Z,67.64
2023-04-20T07:55:02.540Z,67.62
2023-04-20T07:57:31.831Z,67.72
2023-04-20T08:00:00.210Z,67.91
2023-04-20T08:02:28.734Z,67.87
2023-04-20T08:04:57.655Z,67.90
2023-04-20T08:07:26.399Z,67.98
2023-04-20T08:09:55.051Z,68.04
2023-04-20T08:12:23.837Z,68.08
2023-04-20T08:14:52.020Z,67.99
2023-04-20T08:17:20.988Z,68.03
2023-04-20T08:19:49.480Z,68.16
2023-04-20T08:22:17.967Z,68.12
2023-04-20T08:24:47.264Z,68.11
2023-04-20T08:27:15.657Z,67.91
2023-04-20T08:29:43.915Z,67.72
2023-04-20T08:32:13.130Z,67.63
2023-04-20T08:34:41.532Z,67.57
2023-04-20T08:37:10.901Z,67.67
2023-04-20T08:39:39.381Z,67.86
2023-04-20T08:42:07.964Z,68.09
2023-04-20T08:48:00.349Z,68.73
2023-04-20T08:50:28.905Z,68.82
2023-04-20T08:52:58.030Z,69.18
2023-04-20T08:55:27.192Z,69.41
2023-04-20T08:57:55.883Z,68.96
2023-04-20T09:00:24.154Z,69.04
2023-04-20T09:02:54.788Z,68.96
2023-04-20T09:05:31.022Z,68.95
2023-04-20T09:08:00.561Z,68.80
2023-04-20T09:10:40.599Z,68.87
2023-04-20T09:13:10.114Z,68.92
2023-04-20T09:15:38.410Z,69.03
2023-04-20T09:18:17.819Z,69.00
2023-04-20T09:20:46.508Z,68.94
2023-04-20T09:23:18.370Z,69.01
2023-04-20T09:25:50.335Z,68.69
2023-04-20T09:28:19.545Z,68.63
2023-04-20T09:30:49.404Z,68.46
2023-04-20T09:33:19.865Z,68.52
2023-04-20T09:35:48.445Z,68.53
2023-04-20T09:38:17.339Z,69.47
2023-04-20T09:40:45.916Z,70.03
2023-04-20T09:43:18.422Z,70.13
2023-04-20T09:45:46.722Z,70.14
2023-04-20T09:48:19.300Z,69.43
2023-04-20T09:50:50.488Z,68.91
2023-04-20T09:53:20.313Z,68.69
2023-04-20T09:55:50.205Z,68.45
2023-04-20T09:58:20.531Z,68.32
2023-04-20T10:00:49.481Z,68.40
2023-04-20T10:03:19.564Z,68.80
2023-04-20T10:05:48.332Z,69.00
2023-04-20T10:08:17.026Z,68.87
2023-04-20T10:14:16.136Z,69.54
2023-04-20T10:16:45.672Z,69.89
2023-04-20T10:19:14.034Z,69.85
2023-04-20T10:21:49.472Z,69.76
2023-04-20T10:24:30.644Z,69.70
2023-04-20T10:26:59.131Z,69.63
2023-04-20T10:29:28.116Z,69.42
2023-04-20T10:31:56.914Z,69.32
2023-04-20T10:34:35.347Z,69.34
2023-04-20T10:37:11.179Z,69.39
2023-04-20T10:39:46.374Z,69.09
2023-04-20T10:42:16.708Z,69.04
2023-04-20T10:44:53.929Z,69.03
2023-04-20T10:47:29.881Z,68.92
2023-04-20T10:50:09.426Z,68.71
2023-04-20T10:52:39.229Z,68.46
2023-04-20T10:55:18.356Z,68.26
2023-04-20T10:57:46.602Z,68.17
2023-04-20T11:00:17.286Z,68.21
2023-04-20T11:02:56.837Z,68.44
2023-04-20T11:05:27.777Z,68.54
2023-04-20T11:08:00.036Z,68.72
2023-04-20T11:10:41.401Z,68.62
2023-04-20T11:13:24.113Z,68.63
2023-04-20T11:15:52.727Z,68.69
2023-04-20T11:18:21.856Z,68.90
2023-04-20T11:20:57.146Z,68.95
2023-04-20T11:23:28.545Z,69.20
2023-04-20T11:25:57.089Z,69.43
2023-04-20T11:28:30.763Z,69.33
2023-04-20T11:30:59.046Z,69.39
2023-04-20T11:33:28.679Z,69.29
2023-04-20T11:35:58.166Z,69.49
2023-04-20T11:38:34.626Z,69.27
2023-04-20T11:41:08.088Z,69.40
2023-04-20T11:43:36.799Z,69.32
2023-04-20T11:46:14.789Z,69.54
2023-04-20T11:48:43.595Z,69.57
2023-04-20T11:51:11.973Z,69.60
2023-04-20T11:53:40.968Z,69.49
2023-04-20T11:56:09.467Z,69.53
2023-04-20T11:58:38.591Z,69.33
2023-04-20T12:01:07.222Z,69.30
2023-04-20T12:03:35.651Z,69.39
2023-04-20T12:06:04.901Z,69.35
2023-04-20T12:08:33.594Z,69.47
2023-04-20T12:11:01.900Z,69.43
2023-04-20T12:13:30.651Z,69.38
2023-04-20T12:15:58.982Z,69.46
2023-04-20T12:18:27.410Z,69.41
2023-04-20T12:20:55.788Z,69.42
2023-04-20T12:23:24.277Z,69.69
2023-04-20T12:25:52.949Z,69.59
2023-04-20T12:28:21.540Z,69.59
2023-04-20T12:30:50.035Z,69.60
2023-04-20T12:33:18.806Z,69.71
2023-04-20T12:35:47.180Z,69.78
2023-04-20T12:38:15.866Z,69.76
2023-04-20T12:40:44.347Z,69.60
2023-04-20T12:43:12.723Z,69.88
2023-04-20T12:45:41.213Z,69.86
2023-04-20T12:48:09.500Z,69.84
2023-04-20T12:50:38.505Z,69.84
2023-04-20T12:53:06.846Z,69.95
2023-04-20T12:55:35.746Z,69.73
2023-04-20T12:58:04.046Z,69.66
2023-04-20T13:00:32.536Z,69.77
2023-04-20T13:03:01.563Z,69.64
2023-04-20T13:05:30.481Z,69.76
2023-04-20T13:07:58.765Z,69.65
2023-04-20T13:10:27.241Z,69.58
2023-04-20T13:12:58.084Z,69.59
2023-04-20T13:15:38.201Z,69.51
2023-04-20T13:18:08.017Z,69.43
2023-04-20T13:20:37.046Z,69.48
2023-04-20T13:23:05.822Z,69.48
2023-04-20T13:25:34.849Z,69.29
2023-04-20T13:28:03.220Z,69.35
2023-04-20T13:30:32.385Z,69.16
2023-04-20T13:33:01.119Z,69.16
2023-04-20T13:35:30.066Z,69.29
2023-04-20T13:37:58.853Z,69.22
2023-04-20T13:40:27.435Z,69.14
2023-04-20T13:42:56.019Z,68.98
2023-04-20T13:45:24.924Z,68.81
2023-04-20T13:47:53.280Z,68.61
2023-04-20T13:50:21.869Z,68.69
2023-04-20T13:52:50.261Z,68.56
2023-04-20T13:55:20.806Z,68.58
2023-04-20T13:57:49.156Z,68.69
2023-04-20T14:00:18.257Z,68.71
2023-04-20T14:02:46.939Z,68.74
2023-04-20T14:05:15.416Z,68.69
2023-04-20T14:07:43.695Z,68.62
2023-04-20T14:10:12.114Z,68.56
2023-04-20T14:12:40.765Z,68.57
2023-04-20T14:15:11.466Z,68.37
2023-04-20T14:17:40.191Z,68.12
2023-04-20T14:20:09.690Z,67.96
2023-04-20T14:22:38.269Z,67.58
2023-04-20T14:25:07.687Z,67.15
2023-04-20T14:27:36.354Z,67.11
2023-04-20T14:30:05.502Z,66.99
2023-04-20T14:32:34.695Z,67.02
2023-04-20T14:35:05.533Z,66.95
2023-04-20T14:37:34.578Z,66.56
2023-04-20T14:40:03.574Z,66.79
2023-04-20T14:42:32.255Z,66.71
2023-04-20T14:45:00.849Z,66.37
2023-04-20T14:47:29.246Z,66.26
2023-04-20T14:49:57.498Z,66.20
2023-04-20T14:52:25.784Z,66.16
2023-04-20T14:54:54.660Z,66.19
2023-04-20T14:57:22.935Z,66.24
2023-04-20T14:59:51.455Z,66.41
2023-04-20T15:02:19.926Z,66.51
2023-04-20T15:04:49.148Z,66.57
2023-04-20T15:07:18.912Z,66.70
2023-04-20T15:09:48.187Z,66.67
2023-04-20T15:12:16.686Z,66.83
2023-04-20T15:14:44.993Z,66.92
2023-04-20T15:17:14.569Z,66.83
2023-04-20T15:19:46.317Z,66.73
2023-04-20T15:22:14.906Z,66.88
2023-04-20T15:24:43.197Z,66.93
2023-04-20T15:27:11.661Z,66.70
2023-04-20T15:29:40.140Z,66.68
2023-04-20T15:32:08.956Z,66.71
2023-04-20T15:34:37.617Z,66.63
2023-04-20T15:37:06.260Z,66.72
2023-04-20T15:39:34.571Z,66.80
2023-04-20T15:42:03.273Z,66.59
2023-04-20T15:44:32.456Z,66.63
2023-04-20T15:47:01.884Z,66.51
2023-04-20T15:49:30.357Z,66.35
2023-04-20T15:51:58.820Z,66.44
2023-04-20T15:54:27.300Z,66.57
2023-04-20T15:56:55.909Z,66.52
2023-04-20T15:59:24.264Z,66.46
2023-04-20T16:01:53.563Z,66.59
2023-04-20T16:04:22.256Z,66.76
2023-04-20T16:06:50.934Z,66.65
2023-04-20T16:09:20.735Z,66.55
2023-04-20T16:11:50.047Z,66.68
2023-04-20T16:14:18.859Z,66.78
2023-04-20T16:16:47.411Z,66.55
2023-04-20T16:19:15.814Z,66.65
2023-04-20T16:21:44.583Z,66.60
2023-04-20T16:24:12.863Z,66.45
2023-04-20T16:26:41.542Z,66.34
2023-04-20T16:29:10.328Z,66.24
2023-04-20T16:31:38.660Z,66.30
2023-04-20T16:34:07.291Z,66.38
2023-04-20T16:36:35.574Z,66.44
2023-04-20T16:39:06.504Z,66.41
2023-04-20T16:41:34.785Z,66.40
2023-04-20T16:44:03.159Z,66.47
2023-04-20T16:46:32.313Z,66.52
2023-04-20T16:49:00.736Z,66.41
2023-04-20T16:51:29.635Z,66.55
2023-04-20T16:57:23.522Z,66.71
2023-04-20T16:59:52.004Z,66.90
2023-04-20T17:02:20.538Z,66.71
2023-04-20T17:04:49.169Z,66.12
2023-04-20T17:07:17.859Z,65.95
2023-04-20T17:09:46.845Z,65.84
2023-04-20T17:12:15.633Z,65.81
2023-04-20T17:14:44.037Z,65.86
2023-04-20T17:17:12.390Z,65.98
2023-04-20T17:19:41.076Z,66.09
2023-04-20T17:22:10.475Z,66.05
2023-04-20T17:24:38.902Z,66.13
2023-04-20T17:27:07.133Z,66.33
2023-04-20T17:29:38.700Z,66.10
2023-04-20T17:32:07.326Z,66.28
2023-04-20T17:34:36.079Z,66.30
2023-04-20T17:37:04.756Z,66.21
2023-04-20T17:39:33.135Z,66.19
2023-04-20T17:42:01.809Z,66.21
2023-04-20T17:44:30.184Z,66.23
2023-04-20T17:46:59.820Z,66.29
2023-04-20T17:49:28.983Z,66.21
2023-04-20T17:51:57.770Z,66.20
2023-04-20T17:54:26.149Z,66.07
2023-04-20T17:56:55.038Z,66.04
2023-04-20T17:59:23.519Z,66.17
2023-04-20T18:01:51.914Z,66.08
2023-04-20T18:04:21.121Z,66.17
2023-04-20T18:06:51.726Z,66.03
2023-04-20T18:09:20.012Z,65.96
2023-04-20T18:11:48.586Z,66.13
2023-04-20T18:14:17.228Z,66.11
2023-04-20T18:16:46.278Z,66.08
2023-04-20T18:19:14.540Z,66.25
2023-04-20T18:21:42.965Z,66.21
2023-04-20T18:24:12.155Z,66.32
2023-04-20T18:26:40.804Z,66.24
2023-04-20T18:29:09.085Z,66.34
2023-04-20T18:31:37.565Z,66.46
2023-04-20T18:34:05.901Z,66.70
2023-04-20T18:36:35.236Z,66.91
2023-04-20T18:39:04.227Z,67.19
2023-04-20T18:41:32.501Z,67.32
2023-04-20T18:44:01.667Z,67.59
2023-04-20T18:46:30.212Z,67.78
2023-04-20T18:48:58.766Z,67.74
2023-04-20T18:51:27.914Z,67.68
2023-04-20T18:53:56.241Z,67.61
2023-04-20T18:56:24.654Z,67.63
2023-04-20T18:58:53.204Z,67.64
2023-04-20T19:01:21.847Z,67.75
2023-04-20T19:03:50.630Z,67.71
2023-04-20T19:06:19.151Z,67.88
2023-04-20T19:08:47.631Z,67.82
2023-04-20T19:11:15.921Z,67.76
2023-04-20T19:13:45.618Z,67.57
2023-04-20T19:16:14.112Z,67.48
2023-04-20T19:18:42.574Z,67.56
2023-04-20T19:21:10.957Z,67.81
2023-04-20T19:23:39.287Z,67.88
2023-04-20T19:26:07.870Z,67.90
2023-04-20T19:28:36.509Z,67.86
2023-04-20T19:31:05.811Z,67.64
2023-04-20T19:33:34.173Z,67.64
2023-04-20T19:36:03.684Z,67.71
2023-04-20T19:38:34.665Z,67.73
2023-04-20T19:41:03.001Z,67.99
2023-04-20T19:43:35.576Z,67.81
2023-04-20T19:46:04.322Z,67.77
2023-04-20T19:48:33.047Z,67.87
2023-04-20T19:51:03.780Z,67.85
2023-04-20T19:53:32.466Z,67.90
2023-04-20T19:56:00.844Z,67.96
2023-04-20T19:58:29.431Z,67.81
2023-04-20T20:00:58.136Z,67.89
2023-04-20T20:03:27.718Z,67.98
2023-04-20T20:05:56.926Z,68.13
2023-04-20T20:08:25.705Z,68.22
2023-04-20T20:10:53.991Z,68.14
2023-04-20T20:13:22.768Z,68.15
2023-04-20T20:15:51.965Z,68.10
2023-04-20T20:18:20.859Z,68.06
2023-04-20T20:20:50.671Z,68.05
2023-04-20T20:23:18.993Z,68.03
2023-04-20T20:25:47.533Z,67.99
2023-04-20T20:28:16.121Z,68.01
2023-04-20T20:30:45.549Z,68.11
2023-04-20T20:33:14.090Z,67.99
2023-04-20T20:35:42.773Z,67.94
2023-04-20T20:38:11.377Z,68.06
2023-04-20T20:40:40.246Z,68.14
2023-04-20T20:43:09.166Z,68.11
2023-04-20T20:45:37.721Z,68.15
2023-04-20T20:48:06.533Z,68.08
2023-04-20T20:50:35.305Z,68.00
2023-04-20T20:53:03.572Z,67.87
2023-04-20T20:55:32.055Z,67.80
2023-04-20T20:58:00.747Z,67.83
2023-04-20T21:00:29.152Z,68.06
2023-04-20T21:02:57.960Z,68.13
2023-04-20T21:05:26.485Z,68.13
2023-04-20T21:07:54.993Z,68.21
2023-04-20T21:10:23.345Z,68.33
2023-04-20T21:12:51.624Z,68.25
2023-04-20T21:15:20.202Z,68.32
2023-04-20T21:17:48.501Z,68.37
2023-04-20T21:20:17.281Z,68.48
2023-04-20T21:22:45.750Z,68.53
2023-04-20T21:25:14.042Z,68.58
2023-04-20T21:27:42.614Z,68.75
2023-04-20T21:30:11.815Z,68.83
2023-04-20T21:32:40.798Z,68.82
2023-04-20T21:35:09.358Z,68.67
2023-04-20T21:37:38.388Z,68.60
2023-04-20T21:40:10.492Z,68.64
2023-04-20T21:42:38.815Z,68.42
2023-04-20T21:45:08.004Z,68.39
2023-04-20T21:47:36.592Z,68.20
2023-04-20T21:50:05.760Z,68.01
2023-04-20T21:52:34.388Z,67.92
2023-04-20T21:55:02.860Z,67.77
2023-04-20T21:57:31.542Z,67.59
2023-04-20T21:59:59.825Z,67.38
2023-04-20T22:02:28.414Z,67.23
2023-04-20T22:04:57.290Z,67.23
2023-04-20T22:07:27.844Z,67.22
2023-04-20T22:09:56.299Z,67.02
2023-04-20T22:12:38.291Z,66.84
2023-04-20T22:15:10.086Z,66.65
2023-04-20T22:17:38.589Z,66.49
2023-04-20T22:20:09.307Z,66.50
2023-04-20T22:22:38.091Z,66.52
2023-04-20T22:25:07.363Z,66.77
2023-04-20T22:27:36.553Z,66.84
2023-04-20T22:30:09.788Z,66.92
2023-04-20T22:32:39.005Z,66.82
2023-04-20T22:35:08.240Z,66.99
2023-04-20T22:37:37.041Z,67.25
2023-04-20T22:40:06.405Z,67.25
2023-04-20T22:42:36.450Z,67.33
2023-04-20T22:45:05.859Z,67.39
2023-04-20T22:47:35.401Z,67.32
2023-04-20T22:50:04.347Z,67.35
2023-04-20T22:52:32.885Z,67.22
2023-04-20T22:55:01.209Z,67.23
2023-04-20T22:57:30.124Z,67.12
2023-04-20T22:59:58.368Z,67.04
2023-04-20T23:02:27.230Z,67.06
2023-04-20T23:04:56.053Z,66.90
2023-04-20T23:07:24.529Z,66.79
2023-04-20T23:09:54.032Z,66.70
2023-04-20T23:12:22.819Z,66.70
2023-04-20T23:14:51.095Z,66.72
2023-04-20T23:17:19.681Z,66.72
2023-04-20T23:19:47.953Z,66.67
2023-04-20T23:22:16.435Z,66.67
2023-04-20T23:24:45.014Z,66.74
2023-04-20T23:27:13.195Z,66.72
2023-04-20T23:29:41.979Z,66.68
2023-04-20T23:32:10.610Z,66.58
2023-04-20T23:34:39.351Z,66.53
2023-04-20T23:37:07.727Z,66.40
2023-04-20T23:39:37.776Z,66.34
2023-04-20T23:42:06.659Z,66.37
2023-04-20T23:44:35.340Z,66.33
2023-04-20T23:47:03.843Z,66.27
2023-04-20T23:49:32.628Z,66.23
2023-04-20T23:52:01.071Z,66.21
2023-04-20T23:54:31.740Z,66.16
2023-04-20T23:57:02.840Z,66.14
2023-04-20T23:59:31.433Z,66.19
